Time;durP1;ratioP1;P1;durP2;ratioP2;P2;SDS_P1;SDS_P2;PMS_P1;PMS_P2;Temp;Humidity;BMP_temperature;BMP_pressure;BME280_temperature;BME280_humidity;BME280_pressure;Samples;Min_cycle;Max_cycle;Signal;HPM_P1;HPM_P2
2021/12/21 02:07:36;;;;;;;;;;;;;;;;;;;;;
2021/12/21 02:13:36;;;;;;;;;;;;;;;;;;;;;
2021/12/21 02:20:10;;;;;;;;;;;;;;;;;;;;;
2021/12/21 02:35:14;;;;;;;;;;;;;;;;;;;;;
2021/12/21 02:50:39;;;;;;;;;;;3.10;94.70;;;;;;5867264;24;19940;-91
2021/12/21 02:56:10;;;;;;;;;;;3.40;94.80;;;;;;5893778;24;19941;-92
2021/12/21 02:59:16;;;;;;;;;;;;;;;;;;;;;
2021/12/21 03:02:01;;;;;;;;;;;;;;;;;;;;;
2021/12/21 03:04:54;;;;;;;;;;;2.60;95.10;;;;;;5977274;24;20347;-91
2021/12/21 03:11:34;;;;;;;;;;;;;;;;;;;;;
2021/12/21 03:20:51;;;;;;;;;;;;;;;;;;;;;
2021/12/21 03:41:51;;;;;;;;;;;1.80;96.70;;;;;;5949257;24;20288;-93
2021/12/21 03:44:47;;;;;;;;;;;;;;;;;;;;;
2021/12/21 03:47:15;;;;;;;;;;;1.70;96.70;;;;;;5969075;24;19989;-92
2021/12/21 03:52:14;;;;;;;;;;;1.70;96.30;;;;;;6090654;23;19916;-91
2021/12/21 03:54:48;;;;;;;;;;;1.60;96.60;;;;;;6090956;23;19940;-90
2021/12/21 03:57:14;;;;;;;;;;;1.70;96.90;;;;;;6236041;23;19994;-91
2021/12/21 03:59:48;;;;;;;;;;;2.10;96.90;;;;;;6214649;23;19946;-91
2021/12/21 04:02:19;;;;;;;;;;;1.70;96.40;;;;;;6214787;23;20351;-91
2021/12/21 04:04:48;;;;;;;;;;;1.90;96.80;;;;;;6214141;23;19942;-90
2021/12/21 04:07:36;;;;;;;;;;;1.70;96.40;;;;;;6241215;23;19983;-89
2021/12/21 04:10:09;;;;;;;;;;;1.80;96.50;;;;;;6241636;23;19907;-92
2021/12/21 04:12:44;;;;;;;;;;;1.70;96.50;;;;;;6214685;23;20335;-90
2021/12/21 04:15:10;;;;;;;;;;;1.70;96.40;;;;;;6214445;23;19911;-92
2021/12/21 04:17:35;;;;;;;;;;;2.00;97.00;;;;;;6214687;23;19927;-91
2021/12/21 04:20:02;;;;;;;;;;;2.00;97.30;;;;;;6214755;23;20247;-90
2021/12/21 04:22:28;;;;;;;;;;;2.50;97.20;;;;;;6214521;23;20362;-88
2021/12/21 04:24:56;;;;;;;;;;;2.00;97.80;;;;;;6216363;23;20065;-89
2021/12/21 04:27:21;;;;;;;;;;;2.40;98.70;;;;;;6218326;23;20332;-90
2021/12/21 04:29:47;;;;;;;;;;;2.30;98.50;;;;;;6248589;23;19904;-90
2021/12/21 04:32:13;;;;;;;;;;;2.70;98.50;;;;;;6222893;23;19903;-90
2021/12/21 04:34:39;;;;;;;;;;;2.40;99.90;;;;;;6224665;23;19904;-90
2021/12/21 04:37:05;;;;;;;;;;;2.20;99.50;;;;;;6220604;23;19957;-90
2021/12/21 04:39:40;;;;;;;;;;;2.20;99.90;;;;;;6243516;23;19903;-91
2021/12/21 04:42:06;;;;;;;;;;;2.30;99.40;;;;;;6216578;23;20335;-90
2021/12/21 04:44:36;;;;;;;;;;;2.20;98.80;;;;;;6242749;23;19923;-92
2021/12/21 04:47:02;;;;;;;;;;;2.40;98.90;;;;;;6215940;23;19914;-90
2021/12/21 04:49:28;;;;;;;;;;;2.20;99.20;;;;;;6215741;23;19974;-91
2021/12/21 04:51:54;;;;;;;;;;;3.00;99.30;;;;;;6217522;23;19904;-90
2021/12/21 04:54:24;;;;;;;;;;;2.50;99.80;;;;;;6216472;23;19910;-91
2021/12/21 04:56:53;;;;;;;;;;;2.30;99.00;;;;;;6216075;23;20340;-91
2021/12/21 04:59:20;;;;;;;;;;;2.20;99.90;;;;;;6216806;23;19908;-91
2021/12/21 05:01:53;;;;;;;;;;;2.60;99.90;;;;;;6243161;23;20387;-89
2021/12/21 05:04:27;;;;;;;;;;;2.40;99.70;;;;;;6215711;23;19916;-91
2021/12/21 05:06:55;;;;;;;;;;;2.20;99.90;;;;;;6244285;23;19954;-93
2021/12/21 05:12:38;;;;;;;;;;;;;;;;;;;;;
2021/12/21 05:18:27;;;;;;;;;;;2.30;99.40;;;;;;6230542;23;19919;-92
2021/12/21 05:23:51;;;;;;;;;;;;;;;;;;;;;
2021/12/21 05:29:06;;;;;;;;;;;2.20;99.90;;;;;;6098110;23;19909;-90
2021/12/21 05:31:59;;;;;;;;;;;2.50;99.90;;;;;;6205469;23;19914;-91
2021/12/21 05:35:16;;;;;;;;;;;;;;;;;;;;;
2021/12/21 05:40:22;;;;;;;;;;;2.80;99.10;;;;;;6120557;23;19905;-90
2021/12/21 05:43:17;;;;;;;;;;;;;;;;;;;;;
2021/12/21 05:45:45;;;;;;;;;;;2.60;98.80;;;;;;6098137;23;19976;-92
2021/12/21 05:48:11;;;;;;;;;;;2.20;98.90;;;;;;6120832;23;19915;-90
2021/12/21 05:50:46;;;;;;;;;;;2.40;98.90;;;;;;6135543;23;19932;-91
2021/12/21 05:53:24;;;;;;;;;;;;;;;;;;;;;
2021/12/21 05:55:53;;;;;;;;;;;2.20;98.10;;;;;;6235047;23;20155;-91
2021/12/21 05:58:21;;;;;;;;;;;2.20;97.90;;;;;;6240230;23;20044;-90
2021/12/21 06:00:47;;;;;;;;;;;2.20;98.10;;;;;;6214518;23;19910;-90
2021/12/21 06:03:33;;;;;;;;;;;2.10;98.00;;;;;;6215475;23;20021;-89
2021/12/21 06:09:13;;;;;;;;;;;2.70;98.00;;;;;;6220858;23;19911;-90
2021/12/21 06:25:52;;;;;;;;;;;;;;;;;;;;;
2021/12/21 06:28:31;;;;;;;;;;;2.20;97.70;;;;;;6242160;23;19990;-89
2021/12/21 06:31:14;;;;;;;;;;;;;;;;;;;;;
2021/12/21 06:33:43;;;;;;;;;;;2.10;97.80;;;;;;6241881;23;19979;-91
2021/12/21 06:36:49;;;;;;;;;;;2.10;97.70;;;;;;6215669;23;20286;-90
2021/12/21 06:39:33;;;;;;;;;;;;;;;;;;;;;
2021/12/21 06:42:02;;;;;;;;;;;2.20;97.60;;;;;;6240189;23;20002;-89
2021/12/21 06:44:34;;;;;;;;;;;2.20;97.50;;;;;;6214894;23;19947;-89
2021/12/21 06:52:41;;;;;;;;;;;2.10;97.80;;;;;;6240729;23;19946;-92
2021/12/21 06:55:25;;;;;;;;;;;2.10;97.80;;;;;;6213889;23;19982;-91
2021/12/21 06:58:11;;;;;;;;;;;2.10;98.00;;;;;;6213597;23;19904;-91
2021/12/21 07:01:16;;;;;;;;;;;;;;;;;;;;;
2021/12/21 07:03:45;;;;;;;;;;;2.10;98.10;;;;;;6239309;23;20333;-89
2021/12/21 07:06:18;;;;;;;;;;;2.10;97.90;;;;;;6247286;23;19904;-90
2021/12/21 07:09:12;;;;;;;;;;;3.00;98.10;;;;;;6223950;23;19904;-89
2021/12/21 07:19:47;;;;;;;;;;;2.20;97.60;;;;;;6240446;23;19915;-89
2021/12/21 07:22:20;;;;;;;;;;;2.30;97.70;;;;;;6215082;23;19903;-90
2021/12/21 07:25:03;;;;;;;;;;;2.20;97.50;;;;;;6215814;23;20332;-89
2021/12/21 07:27:31;;;;;;;;;;;2.10;97.80;;;;;;6215146;23;19904;-90
2021/12/21 07:29:57;;;;;;;;;;;2.10;97.70;;;;;;6212840;23;19904;-90
2021/12/21 07:32:52;;;;;;;;;;;;;;;;;;;;;
2021/12/21 07:44:51;;;;;;;;;;;2.10;97.40;;;;;;5893915;24;19927;-91
2021/12/21 07:47:55;;;;;;;;;;;;;;;;;;;;;
2021/12/21 07:51:26;;;;;;;;;;;2.10;97.50;;;;;;5971100;24;19982;-90
2021/12/21 07:53:55;;;;;;;;;;;;;;;;;;;;;
2021/12/21 07:59:37;;;;;;;;;;;2.40;97.60;;;;;;5903993;24;20312;-91
2021/12/21 08:02:03;;;;;;;;;;;2.00;97.90;;;;;;5986027;23;19908;-90
2021/12/21 08:04:39;;;;;;;;;;;;;;;;;;;;;
2021/12/21 08:07:32;;;;;;;;;;;1.90;97.90;;;;;;6243225;23;20285;-92
2021/12/21 08:10:16;;;;;;;;;;;;;;;;;;;;;
2021/12/21 08:12:42;;;;;;;;;;;2.00;97.50;;;;;;6241633;23;19994;-89
2021/12/21 08:15:31;;;;;;;;;;;2.10;97.50;;;;;;6241889;23;19903;-93
2021/12/21 08:17:56;;;;;;;;;;;2.00;97.70;;;;;;6214828;23;19930;-91
2021/12/21 08:20:22;;;;;;;;;;;2.00;97.90;;;;;;6215549;23;20339;-91
2021/12/21 08:23:09;;;;;;;;;;;;;;;;;;;;;
2021/12/21 08:25:57;;;;;;;;;;;;;;;;;;;;;
2021/12/21 08:28:26;;;;;;;;;;;2.10;98.30;;;;;;6242242;23;19991;-89
2021/12/21 08:31:00;;;;;;;;;;;2.40;98.30;;;;;;6215052;23;19987;-91
2021/12/21 08:33:28;;;;;;;;;;;2.10;97.80;;;;;;6214958;23;19906;-89
2021/12/21 08:42:49;;;;;;;;;;;1.90;98.70;;;;;;6224568;23;20319;-90
2021/12/21 08:45:22;;;;;;;;;;;2.00;98.70;;;;;;6241378;23;20297;-90
2021/12/21 08:48:00;;;;;;;;;;;;;;;;;;;;;
2021/12/21 08:51:04;;;;;;;;;;;2.00;99.30;;;;;;6241580;23;19983;-89
2021/12/21 08:53:29;;;;;;;;;;;1.70;99.90;;;;;;6237194;23;19904;-91
2021/12/21 08:55:55;;;;;;;;;;;1.90;99.80;;;;;;6214661;23;19903;-90
2021/12/21 08:58:21;;;;;;;;;;;2.00;99.80;;;;;;6213690;23;19904;-90
2021/12/21 09:00:46;;;;;;;;;;;2.60;99.90;;;;;;6239512;23;19903;-89
2021/12/21 09:03:12;;;;;;;;;;;2.00;99.60;;;;;;6212666;23;20243;-89
2021/12/21 09:05:39;;;;;;;;;;;2.20;99.30;;;;;;6213056;23;19952;-89
2021/12/21 09:08:06;;;;;;;;;;;3.00;99.10;;;;;;6214770;23;20378;-89
2021/12/21 09:10:32;;;;;;;;;;;2.50;99.00;;;;;;6241209;23;19903;-88
2021/12/21 09:13:00;;;;;;;;;;;3.30;98.70;;;;;;6215733;23;19984;-89
2021/12/21 09:15:26;;;;;;;;;;;2.50;98.30;;;;;;6242382;23;19904;-89
2021/12/21 09:17:52;;;;;;;;;;;2.60;98.50;;;;;;6242133;23;20351;-89
2021/12/21 09:20:19;;;;;;;;;;;3.40;98.70;;;;;;6242367;23;19931;-91
2021/12/21 09:22:48;;;;;;;;;;;2.80;98.70;;;;;;6215923;23;20197;-89
2021/12/21 09:25:13;;;;;;;;;;;2.80;98.60;;;;;;6242046;23;19915;-88
2021/12/21 09:27:40;;;;;;;;;;;2.70;98.80;;;;;;6215879;23;19903;-88
2021/12/21 09:30:07;;;;;;;;;;;2.80;98.20;;;;;;6216323;23;20391;-88
2021/12/21 09:32:32;;;;;;;;;;;2.80;98.10;;;;;;6214995;23;19907;-88
2021/12/21 09:34:58;;;;;;;;;;;2.90;98.20;;;;;;6215513;23;20328;-90
2021/12/21 09:37:26;;;;;;;;;;;3.60;98.20;;;;;;6215294;23;20396;-90
2021/12/21 09:39:53;;;;;;;;;;;3.70;98.20;;;;;;6214447;23;19904;-89
2021/12/21 09:42:20;;;;;;;;;;;2.80;97.70;;;;;;6241268;23;19919;-89
2021/12/21 09:44:46;;;;;;;;;;;3.20;98.10;;;;;;6214269;23;19912;-90
2021/12/21 09:47:15;;;;;;;;;;;3.00;98.10;;;;;;6240764;23;20131;-88
2021/12/21 09:49:41;;;;;;;;;;;2.80;98.40;;;;;;6238877;23;20285;-92
2021/12/21 09:52:08;;;;;;;;;;;2.90;98.40;;;;;;6214946;23;19904;-88
2021/12/21 09:54:34;;;;;;;;;;;3.00;98.20;;;;;;6219092;23;20247;-89
2021/12/21 09:57:00;;;;;;;;;;;3.00;98.00;;;;;;6247120;23;20134;-88
2021/12/21 09:59:28;;;;;;;;;;;3.30;98.10;;;;;;6222296;23;19979;-90
2021/12/21 10:01:56;;;;;;;;;;;3.20;98.10;;;;;;6221667;23;19931;-90
2021/12/21 10:04:22;;;;;;;;;;;3.60;98.20;;;;;;6244521;23;19999;-88
2021/12/21 10:06:49;;;;;;;;;;;4.10;98.10;;;;;;6215308;23;19943;-89
2021/12/21 10:09:23;;;;;;;;;;;4.00;98.00;;;;;;6215256;23;19903;-91
2021/12/21 10:11:50;;;;;;;;;;;3.80;98.00;;;;;;6215594;23;20339;-87
2021/12/21 10:14:16;;;;;;;;;;;3.60;97.40;;;;;;6242268;23;19917;-89
2021/12/21 10:16:46;;;;;;;;;;;3.90;98.00;;;;;;6214209;23;19904;-88
2021/12/21 10:19:24;;;;;;;;;;;3.90;98.10;;;;;;6241448;23;19904;-89
2021/12/21 10:21:50;;;;;;;;;;;3.70;98.10;;;;;;6214676;23;19991;-90
2021/12/21 10:24:26;;;;;;;;;;;4.00;98.20;;;;;;6215336;23;19911;-91
2021/12/21 10:27:12;;;;;;;;;;;4.00;98.10;;;;;;6214770;23;19983;-88
2021/12/21 10:30:04;;;;;;;;;;;4.10;97.90;;;;;;6215332;23;19903;-88
2021/12/21 10:32:31;;;;;;;;;;;4.20;97.50;;;;;;6231761;23;19904;-88
2021/12/21 10:34:59;;;;;;;;;;;4.40;97.30;;;;;;6241117;23;20390;-89
2021/12/21 10:37:43;;;;;;;;;;;4.80;97.30;;;;;;6241282;23;19910;-90
2021/12/21 10:40:23;;;;;;;;;;;4.40;96.50;;;;;;6216377;23;19986;-91
2021/12/21 10:42:56;;;;;;;;;;;4.40;96.70;;;;;;6218965;23;19943;-88
2021/12/21 10:45:27;;;;;;;;;;;4.50;95.90;;;;;;6214953;23;20278;-89
2021/12/21 10:47:52;;;;;;;;;;;4.40;94.70;;;;;;6214891;23;19965;-90
2021/12/21 10:50:26;;;;;;;;;;;4.50;95.50;;;;;;6241827;23;19907;-89
2021/12/21 10:52:57;;;;;;;;;;;4.60;96.00;;;;;;6215023;23;20347;-90
2021/12/21 10:55:27;;;;;;;;;;;4.60;95.70;;;;;;6214939;23;20284;-89
2021/12/21 10:58:07;;;;;;;;;;;4.60;95.30;;;;;;6215073;23;19916;-90
2021/12/21 11:00:35;;;;;;;;;;;4.70;96.10;;;;;;6215083;23;19911;-89
2021/12/21 11:03:00;;;;;;;;;;;4.90;96.20;;;;;;6215414;23;20239;-89
2021/12/21 11:05:26;;;;;;;;;;;4.90;96.10;;;;;;6215007;23;20324;-90
2021/12/21 11:08:16;;;;;;;;;;;4.90;95.40;;;;;;6214443;23;19904;-88
2021/12/21 11:10:44;;;;;;;;;;;4.90;95.50;;;;;;6242100;23;19904;-89
2021/12/21 11:13:11;;;;;;;;;;;5.10;95.60;;;;;;6242982;23;19935;-88
2021/12/21 11:15:39;;;;;;;;;;;5.00;95.70;;;;;;6214696;23;19903;-89
2021/12/21 11:18:06;;;;;;;;;;;5.00;95.60;;;;;;6241482;23;19904;-89
2021/12/21 11:20:32;;;;;;;;;;;5.10;95.60;;;;;;6214584;23;19935;-87
2021/12/21 11:22:58;;;;;;;;;;;5.40;95.00;;;;;;6214519;23;19914;-88
2021/12/21 11:25:24;;;;;;;;;;;5.40;95.20;;;;;;6214430;23;19991;-90
2021/12/21 11:27:50;;;;;;;;;;;5.20;95.00;;;;;;6214476;23;19907;-89
2021/12/21 11:30:24;;;;;;;;;;;5.20;95.00;;;;;;6214828;23;19986;-88
2021/12/21 11:32:57;;;;;;;;;;;5.20;94.50;;;;;;6242266;22;19911;-90
2021/12/21 11:38:02;;;;;;;;;;;5.20;94.20;;;;;;6242007;23;19903;-90
2021/12/21 11:40:32;;;;;;;;;;;5.30;94.40;;;;;;6214759;23;19904;-89
2021/12/21 11:43:08;;;;;;;;;;;5.30;93.80;;;;;;6214679;23;19911;-90
2021/12/21 11:45:37;;;;;;;;;;;5.30;94.30;;;;;;6241470;23;19928;-91
2021/12/21 11:48:05;;;;;;;;;;;5.30;94.40;;;;;;6241084;23;19908;-89
2021/12/21 11:50:31;;;;;;;;;;;5.40;94.80;;;;;;6214523;23;19939;-90
2021/12/21 11:53:04;;;;;;;;;;;5.40;94.90;;;;;;6241348;23;19911;-89
2021/12/21 11:55:31;;;;;;;;;;;5.50;94.70;;;;;;6214195;23;20348;-89
2021/12/21 11:58:12;;;;;;;;;;;5.50;95.00;;;;;;6214157;23;19904;-89
2021/12/21 12:00:37;;;;;;;;;;;5.50;94.70;;;;;;6213909;23;20244;-92
2021/12/21 12:03:11;;;;;;;;;;;5.60;94.70;;;;;;6216653;23;19986;-91
2021/12/21 12:05:40;;;;;;;;;;;5.60;93.90;;;;;;6216981;23;20312;-91
2021/12/21 12:08:05;;;;;;;;;;;5.50;93.70;;;;;;6244437;23;20544;-90
2021/12/21 12:10:53;;;;;;;;;;;5.60;93.90;;;;;;6241256;23;19927;-90
2021/12/21 12:13:40;;;;;;;;;;;5.60;94.10;;;;;;6214697;23;19904;-89
2021/12/21 12:16:05;;;;;;;;;;;5.70;92.20;;;;;;6215050;23;20164;-91
2021/12/21 12:18:33;;;;;;;;;;;5.60;94.00;;;;;;6214364;23;19907;-90
2021/12/21 12:21:10;;;;;;;;;;;5.60;94.10;;;;;;6214380;23;19910;-90
2021/12/21 12:23:44;;;;;;;;;;;5.70;93.70;;;;;;6214447;23;19923;-88
2021/12/21 12:26:19;;;;;;;;;;;5.70;93.80;;;;;;6214779;23;19903;-90
2021/12/21 12:28:45;;;;;;;;;;;5.80;93.80;;;;;;6242440;23;19903;-92
2021/12/21 12:31:11;;;;;;;;;;;5.90;94.00;;;;;;6242549;23;19957;-91
2021/12/21 12:33:42;;;;;;;;;;;5.90;94.00;;;;;;6214468;23;19935;-89
2021/12/21 12:36:07;;;;;;;;;;;6.00;93.70;;;;;;6214951;23;19911;-92
2021/12/21 12:38:41;;;;;;;;;;;5.90;93.90;;;;;;6241265;23;19907;-88
2021/12/21 12:41:11;;;;;;;;;;;6.00;93.90;;;;;;6241079;23;20168;-89
2021/12/21 12:43:40;;;;;;;;;;;6.00;93.80;;;;;;6241074;23;20230;-91
2021/12/21 12:46:08;;;;;;;;;;;6.00;93.60;;;;;;6242148;23;19908;-91
2021/12/21 12:48:42;;;;;;;;;;;6.00;93.80;;;;;;6243162;23;19904;-90
2021/12/21 12:51:09;;;;;;;;;;;6.00;93.60;;;;;;6216490;23;19987;-90
2021/12/21 12:53:44;;;;;;;;;;;6.00;93.80;;;;;;6216532;23;19911;-90
2021/12/21 12:56:18;;;;;;;;;;;6.00;93.20;;;;;;6216269;23;19910;-91
2021/12/21 12:59:03;;;;;;;;;;;6.10;93.60;;;;;;6216822;23;19910;-90
2021/12/21 13:01:31;;;;;;;;;;;6.00;93.60;;;;;;6243238;23;19904;-89
2021/12/21 13:03:58;;;;;;;;;;;6.00;93.40;;;;;;6216065;23;19912;-90
2021/12/21 13:06:28;;;;;;;;;;;6.00;93.40;;;;;;6216110;23;19904;-91
2021/12/21 13:08:54;;;;;;;;;;;6.10;93.20;;;;;;6242892;23;20309;-90
2021/12/21 13:11:21;;;;;;;;;;;6.10;93.40;;;;;;6216143;23;19904;-90
2021/12/21 13:13:47;;;;;;;;;;;6.10;93.10;;;;;;6216793;23;19903;-90
2021/12/21 13:16:15;;;;;;;;;;;6.30;93.40;;;;;;6243728;23;20286;-89
2021/12/21 13:18:42;;;;;;;;;;;6.10;93.20;;;;;;6216266;23;19953;-88
2021/12/21 13:21:17;;;;;;;;;;;6.10;93.40;;;;;;6242743;23;19904;-89
2021/12/21 13:23:42;;;;;;;;;;;6.20;93.60;;;;;;6242545;23;19912;-90
2021/12/21 13:26:08;;;;;;;;;;;6.20;93.20;;;;;;6215974;23;19904;-92
2021/12/21 13:28:44;;;;;;;;;;;6.20;93.60;;;;;;6215827;23;19903;-90
2021/12/21 13:31:10;;;;;;;;;;;6.20;93.40;;;;;;6215736;23;19965;-90
2021/12/21 13:33:41;;;;;;;;;;;6.20;93.40;;;;;;6215370;23;20239;-90
2021/12/21 13:36:10;;;;;;;;;;;6.20;93.50;;;;;;6242456;23;20351;-89
2021/12/21 13:38:44;;;;;;;;;;;6.30;93.20;;;;;;6215469;23;19903;-90
2021/12/21 13:41:17;;;;;;;;;;;6.30;93.30;;;;;;6242469;23;20382;-90
2021/12/21 13:43:56;;;;;;;;;;;6.30;93.30;;;;;;6215760;23;19939;-90
2021/12/21 13:46:31;;;;;;;;;;;6.30;93.40;;;;;;6242613;23;19903;-89
2021/12/21 13:48:57;;;;;;;;;;;6.30;93.40;;;;;;6215384;23;20351;-89
2021/12/21 13:51:25;;;;;;;;;;;6.30;93.50;;;;;;6215876;23;19907;-89
2021/12/21 13:53:55;;;;;;;;;;;6.30;93.50;;;;;;6216175;23;19958;-90
2021/12/21 13:56:22;;;;;;;;;;;6.40;93.50;;;;;;6243526;23;19943;-88
2021/12/21 13:58:55;;;;;;;;;;;6.30;93.60;;;;;;6216536;23;19904;-90
2021/12/21 14:01:22;;;;;;;;;;;6.30;93.60;;;;;;6216571;23;19978;-90
2021/12/21 14:03:53;;;;;;;;;;;6.30;93.40;;;;;;6216814;23;19915;-88
2021/12/21 14:06:22;;;;;;;;;;;6.30;93.50;;;;;;6216305;23;19942;-91
2021/12/21 14:08:49;;;;;;;;;;;6.30;93.50;;;;;;6216384;23;19977;-90
2021/12/21 14:11:15;;;;;;;;;;;6.20;93.40;;;;;;6215528;23;19957;-90
2021/12/21 14:13:50;;;;;;;;;;;6.30;93.40;;;;;;6215265;23;20279;-88
2021/12/21 14:16:17;;;;;;;;;;;6.30;93.30;;;;;;6215130;23;20287;-90
2021/12/21 14:18:47;;;;;;;;;;;6.20;93.30;;;;;;6215598;23;19929;-90
2021/12/21 14:21:19;;;;;;;;;;;6.00;89.10;;;;;;6215270;23;19908;-88
2021/12/21 14:23:52;;;;;;;;;;;5.80;90.50;;;;;;6215315;23;19915;-88
2021/12/21 14:26:23;;;;;;;;;;;6.00;92.60;;;;;;6216231;23;19957;-91
2021/12/21 14:28:55;;;;;;;;;;;6.00;92.70;;;;;;6216181;23;19904;-90
2021/12/21 14:31:26;;;;;;;;;;;6.10;92.90;;;;;;6243010;23;19910;-90
2021/12/21 14:33:54;;;;;;;;;;;6.00;92.20;;;;;;6216075;23;19904;-90
2021/12/21 14:36:23;;;;;;;;;;;6.00;91.10;;;;;;6216000;23;20320;-88
2021/12/21 14:38:57;;;;;;;;;;;5.90;91.10;;;;;;6215911;23;19930;-88
2021/12/21 14:41:28;;;;;;;;;;;6.00;92.30;;;;;;6215865;23;19907;-90
2021/12/21 14:44:07;;;;;;;;;;;5.90;92.10;;;;;;6214685;23;19911;-90
2021/12/21 14:46:35;;;;;;;;;;;5.90;91.50;;;;;;6215430;23;20200;-88
2021/12/21 14:49:06;;;;;;;;;;;5.80;90.30;;;;;;6241703;23;19907;-90
2021/12/21 14:51:48;;;;;;;;;;;5.90;92.10;;;;;;6214831;23;19904;-90
2021/12/21 14:54:24;;;;;;;;;;;5.90;92.30;;;;;;6214923;23;19938;-89
2021/12/21 14:56:52;;;;;;;;;;;5.90;92.10;;;;;;6215926;23;19910;-89
2021/12/21 14:59:28;;;;;;;;;;;5.90;92.10;;;;;;6214895;23;20399;-89
2021/12/21 15:01:58;;;;;;;;;;;5.90;92.20;;;;;;6215806;23;20295;-89
2021/12/21 15:04:24;;;;;;;;;;;5.90;92.20;;;;;;6215927;23;19922;-88
2021/12/21 15:06:51;;;;;;;;;;;5.90;92.00;;;;;;6242783;23;19974;-89
2021/12/21 15:09:19;;;;;;;;;;;5.80;91.40;;;;;;6239896;23;19981;-91
2021/12/21 15:11:49;;;;;;;;;;;5.80;92.00;;;;;;6214732;23;20240;-88
2021/12/21 15:14:15;;;;;;;;;;;5.80;92.10;;;;;;6214713;23;19907;-90
2021/12/21 15:16:41;;;;;;;;;;;5.80;92.00;;;;;;6214950;23;19904;-88
2021/12/21 15:19:06;;;;;;;;;;;5.90;92.20;;;;;;6242086;23;20287;-88
2021/12/21 15:21:32;;;;;;;;;;;5.70;92.10;;;;;;6214770;23;19911;-90
2021/12/21 15:24:00;;;;;;;;;;;5.60;91.80;;;;;;6214579;23;19963;-88
2021/12/21 15:26:26;;;;;;;;;;;5.60;92.00;;;;;;6214859;23;20243;-89
2021/12/21 15:28:52;;;;;;;;;;;5.50;91.60;;;;;;6215458;23;20432;-87
2021/12/21 15:31:18;;;;;;;;;;;5.50;91.90;;;;;;6241324;23;19939;-91
2021/12/21 15:33:43;;;;;;;;;;;5.50;92.00;;;;;;6241576;23;19991;-91
2021/12/21 15:36:09;;;;;;;;;;;5.30;90.10;;;;;;6241547;23;20213;-89
2021/12/21 15:38:35;;;;;;;;;;;5.30;91.80;;;;;;6214648;23;19903;-89
2021/12/21 15:41:02;;;;;;;;;;;5.30;91.80;;;;;;6241386;23;20026;-89
2021/12/21 15:43:35;;;;;;;;;;;5.30;91.80;;;;;;6214401;23;19923;-89
2021/12/21 15:46:00;;;;;;;;;;;5.20;91.80;;;;;;6214554;23;19942;-91
2021/12/21 15:48:26;;;;;;;;;;;5.20;91.70;;;;;;6216066;23;19958;-91
2021/12/21 15:50:52;;;;;;;;;;;5.10;92.10;;;;;;6215868;23;19966;-90
2021/12/21 15:53:18;;;;;;;;;;;5.10;91.70;;;;;;6241469;23;20283;-88
2021/12/21 15:55:43;;;;;;;;;;;5.10;91.70;;;;;;6214558;23;19982;-89
2021/12/21 15:58:09;;;;;;;;;;;5.00;91.60;;;;;;6214378;23;20348;-92
2021/12/21 16:00:34;;;;;;;;;;;5.00;91.50;;;;;;6214487;23;19904;-90
2021/12/21 16:03:00;;;;;;;;;;;4.90;91.50;;;;;;6241300;23;20239;-89
2021/12/21 16:05:26;;;;;;;;;;;4.90;91.60;;;;;;6215322;23;19912;-88
2021/12/21 16:07:51;;;;;;;;;;;4.80;91.50;;;;;;6214417;23;19954;-90
2021/12/21 16:10:19;;;;;;;;;;;4.70;91.60;;;;;;6241267;23;19912;-91
2021/12/21 16:12:44;;;;;;;;;;;4.70;91.60;;;;;;6214391;23;19903;-89
2021/12/21 16:15:10;;;;;;;;;;;4.60;91.50;;;;;;6214638;23;19911;-89
2021/12/21 16:17:36;;;;;;;;;;;4.60;91.60;;;;;;6214633;23;19927;-90
2021/12/21 16:20:06;;;;;;;;;;;4.60;91.60;;;;;;6215409;23;19907;-89
2021/12/21 16:22:32;;;;;;;;;;;4.60;91.50;;;;;;6243232;23;20354;-89
2021/12/21 16:24:58;;;;;;;;;;;4.50;91.50;;;;;;6244486;23;19912;-88
2021/12/21 16:27:23;;;;;;;;;;;4.40;91.40;;;;;;6244183;23;19990;-88
2021/12/21 16:29:51;;;;;;;;;;;4.50;91.50;;;;;;6216477;23;19903;-89
2021/12/21 16:32:17;;;;;;;;;;;4.50;91.50;;;;;;6243319;23;19903;-89
2021/12/21 16:34:45;;;;;;;;;;;4.40;91.50;;;;;;6243341;23;20139;-91
2021/12/21 16:37:10;;;;;;;;;;;4.40;91.50;;;;;;6216189;23;20335;-89
2021/12/21 16:39:43;;;;;;;;;;;4.60;91.50;;;;;;6216357;23;19958;-90
2021/12/21 16:42:11;;;;;;;;;;;4.40;91.40;;;;;;6216374;23;20279;-88
2021/12/21 16:44:37;;;;;;;;;;;4.40;91.50;;;;;;6216252;23;19965;-88
2021/12/21 16:47:02;;;;;;;;;;;4.40;91.40;;;;;;6216277;23;19979;-89
2021/12/21 16:49:28;;;;;;;;;;;4.30;91.50;;;;;;6243996;23;19911;-89
2021/12/21 16:51:54;;;;;;;;;;;4.20;91.40;;;;;;6217179;23;19970;-90
2021/12/21 16:54:20;;;;;;;;;;;4.30;91.50;;;;;;6216063;23;20271;-88
2021/12/21 16:56:45;;;;;;;;;;;4.10;91.40;;;;;;6215831;23;19904;-89
2021/12/21 16:59:12;;;;;;;;;;;4.30;91.60;;;;;;6216313;23;19930;-89
2021/12/21 17:01:41;;;;;;;;;;;4.20;91.50;;;;;;6216363;23;19957;-89
2021/12/21 17:04:07;;;;;;;;;;;4.30;91.60;;;;;;6215940;23;19911;-89
2021/12/21 17:06:33;;;;;;;;;;;4.00;91.60;;;;;;6243329;23;19919;-89
2021/12/21 17:08:58;;;;;;;;;;;4.00;91.40;;;;;;6217611;23;19904;-89
2021/12/21 17:11:25;;;;;;;;;;;4.50;91.50;;;;;;6243075;23;20240;-90
2021/12/21 17:13:51;;;;;;;;;;;4.10;91.50;;;;;;6242999;23;19961;-90
2021/12/21 17:16:18;;;;;;;;;;;3.90;91.40;;;;;;6216336;23;19908;-88
2021/12/21 17:18:46;;;;;;;;;;;3.90;91.40;;;;;;6242914;23;19983;-89
2021/12/21 17:21:14;;;;;;;;;;;3.90;91.60;;;;;;6242885;23;20255;-89
2021/12/21 17:23:39;;;;;;;;;;;3.90;91.50;;;;;;6215721;23;19962;-88
2021/12/21 17:26:05;;;;;;;;;;;3.70;91.50;;;;;;6216144;23;20279;-90
2021/12/21 17:28:33;;;;;;;;;;;3.70;91.30;;;;;;6216170;23;19930;-90
2021/12/21 17:30:59;;;;;;;;;;;3.60;91.30;;;;;;6217169;23;19903;-90
2021/12/21 17:33:28;;;;;;;;;;;3.50;91.20;;;;;;6243527;23;19911;-88
2021/12/21 17:35:57;;;;;;;;;;;4.10;91.40;;;;;;6217069;23;19946;-88
2021/12/21 17:38:22;;;;;;;;;;;3.40;91.20;;;;;;6216254;23;20256;-89
2021/12/21 17:40:48;;;;;;;;;;;4.10;91.50;;;;;;6242863;23;19992;-90
2021/12/21 17:43:15;;;;;;;;;;;3.90;91.50;;;;;;6242188;23;20295;-90
2021/12/21 17:45:42;;;;;;;;;;;3.90;91.70;;;;;;6215638;23;19907;-89
2021/12/21 17:48:08;;;;;;;;;;;3.40;91.60;;;;;;6215613;23;19942;-88
2021/12/21 17:50:34;;;;;;;;;;;3.40;91.70;;;;;;6215361;23;19986;-89
2021/12/21 17:52:59;;;;;;;;;;;3.40;91.70;;;;;;6243045;23;19931;-88
2021/12/21 17:55:25;;;;;;;;;;;3.50;91.60;;;;;;6214087;23;19903;-87
2021/12/21 17:57:50;;;;;;;;;;;3.40;91.60;;;;;;6214555;23;20217;-89
2021/12/21 18:00:18;;;;;;;;;;;3.40;91.70;;;;;;6240686;23;19908;-89
2021/12/21 18:02:44;;;;;;;;;;;3.60;91.70;;;;;;6240917;23;19908;-88
2021/12/21 18:05:09;;;;;;;;;;;4.40;91.80;;;;;;6241417;23;20002;-88
2021/12/21 18:07:36;;;;;;;;;;;3.40;91.70;;;;;;6214896;23;19911;-90
2021/12/21 18:10:13;;;;;;;;;;;;;;;;;;;;;
2021/12/21 18:12:39;;;;;;;;;;;3.40;91.70;;;;;;6242693;23;19986;-91
2021/12/21 18:15:06;;;;;;;;;;;3.40;91.70;;;;;;6242215;23;19907;-91
2021/12/21 18:17:32;;;;;;;;;;;3.40;91.70;;;;;;6242708;23;20328;-90
2021/12/21 18:19:59;;;;;;;;;;;3.40;91.70;;;;;;6216271;23;19903;-91
2021/12/21 18:38:48;;;;;;;;;;;3.40;91.80;;;;;;6091438;23;20285;-90
2021/12/21 18:41:43;;;;;;;;;;;3.40;91.90;;;;;;6125895;23;20246;-91
2021/12/21 18:48:00;;;;;;;;;;;;;;;;;;;;;
2021/12/21 18:50:52;;;;;;;;;;;3.40;91.90;;;;;;6005507;23;19985;-92
2021/12/21 18:53:17;;;;;;;;;;;3.60;92.10;;;;;;6013432;23;19906;-88
2021/12/21 18:55:43;;;;;;;;;;;3.60;92.10;;;;;;6163197;23;19942;-91
2021/12/21 18:58:09;;;;;;;;;;;3.90;92.10;;;;;;6242141;23;19911;-90
2021/12/21 19:00:39;;;;;;;;;;;3.30;92.10;;;;;;6215100;23;20200;-89
2021/12/21 19:03:07;;;;;;;;;;;3.30;92.10;;;;;;6215180;23;19933;-89
2021/12/21 19:05:34;;;;;;;;;;;3.30;92.00;;;;;;6216152;23;19903;-90
2021/12/21 19:08:00;;;;;;;;;;;3.20;92.00;;;;;;6215999;23;19910;-90
2021/12/21 19:10:33;;;;;;;;;;;3.30;92.20;;;;;;6215146;23;19904;-91
2021/12/21 19:12:59;;;;;;;;;;;3.20;92.30;;;;;;6215449;23;19946;-92
2021/12/21 19:15:25;;;;;;;;;;;3.30;92.20;;;;;;6215986;23;19908;-91
2021/12/21 19:17:56;;;;;;;;;;;3.20;92.20;;;;;;6215527;23;19999;-91
2021/12/21 19:20:22;;;;;;;;;;;3.30;92.30;;;;;;6215242;23;20347;-92
2021/12/21 19:22:47;;;;;;;95.25;33.83;;;3.50;92.30;;;;;;6214527;23;20358;-89
2021/12/21 19:25:14;;;;;;;88.10;32.03;;;3.20;92.40;;;;;;6214362;23;20055;-90
2021/12/21 19:27:45;;;;;;;78.85;32.13;;;3.20;92.40;;;;;;6241343;23;20075;-89
2021/12/21 19:30:14;;;;;;;87.43;33.88;;;3.20;92.30;;;;;;6214070;23;20058;-90
2021/12/21 19:32:43;;;;;;;98.90;32.70;;;3.30;92.40;;;;;;6240859;23;20000;-91
2021/12/21 19:35:09;;;;;;;98.43;35.85;;;3.20;92.30;;;;;;6214531;23;20000;-91
2021/12/21 19:37:36;;;;;;;95.40;35.10;;;3.20;92.30;;;;;;6214923;23;20467;-90
2021/12/21 19:40:05;;;;;;;93.30;32.80;;;3.20;92.30;;;;;;6214840;23;20007;-90
2021/12/21 19:42:31;;;;;;;86.30;32.85;;;3.20;92.30;;;;;;6214978;23;20011;-89
2021/12/21 19:45:37;;;;;;;89.93;33.95;;;3.30;92.30;;;;;;6241100;23;20020;-88
2021/12/21 19:54:52;;;;;;;80.57;30.95;;;3.20;92.30;;;;;;5977288;23;20016;-89
2021/12/21 19:57:18;;;;;;;85.10;31.40;;;3.20;92.50;;;;;;6082059;23;20048;-89
2021/12/21 19:59:44;;;;;;;79.53;31.95;;;3.20;92.50;;;;;;6213029;23;20142;-88
2021/12/21 20:02:13;;;;;;;86.68;33.00;;;3.10;92.70;;;;;;6212313;23;20404;-91